sensor_id;sensor_type;location;lat;lon;timestamp;temperature;humidity
37646;DHT22;23489;49.600;6.138;2023-04-30T00:00:50;10.20;99.90
37646;DHT22;23489;49.600;6.138;2023-04-30T00:03:16;10.20;99.90
37646;DHT22;23489;49.600;6.138;2023-04-30T00:05:41;10.10;99.90
37646;DHT22;23489;49.600;6.138;2023-04-30T00:08:07;10.20;99.90
37646;DHT22;23489;49.600;6.138;2023-04-30T00:10:36;10.10;99.90
37646;DHT22;23489;49.600;6.138;2023-04-30T00:13:02;10.10;99.90
37646;DHT22;23489;49.600;6.138;2023-04-30T00:15:28;10.10;99.90
37646;DHT22;23489;49.600;6.138;2023-04-30T00:17:53;10.10;99.90
37646;DHT22;23489;49.600;6.138;2023-04-30T00:20:19;10.10;99.90
37646;DHT22;23489;49.600;6.138;2023-04-30T00:22:44;10.10;99.90
37646;DHT22;23489;49.600;6.138;2023-04-30T00:25:10;10.10;99.90
37646;DHT22;23489;49.600;6.138;2023-04-30T00:27:35;10.20;99.90
37646;DHT22;23489;49.600;6.138;2023-04-30T00:30:01;10.10;99.90
37646;DHT22;23489;49.600;6.138;2023-04-30T00:32:27;10.10;99.90
37646;DHT22;23489;49.600;6.138;2023-04-30T00:34:52;10.10;99.90
37646;DHT22;23489;49.600;6.138;2023-04-30T00:37:18;10.10;99.90
37646;DHT22;23489;49.600;6.138;2023-04-30T00:39:44;10.10;99.90
37646;DHT22;23489;49.600;6.138;2023-04-30T00:42:09;10.10;99.90
37646;DHT22;23489;49.600;6.138;2023-04-30T00:44:35;10.10;99.90
37646;DHT22;23489;49.600;6.138;2023-04-30T00:47:01;10.00;99.90
37646;DHT22;23489;49.600;6.138;2023-04-30T00:49:26;10.00;99.90
37646;DHT22;23489;49.600;6.138;2023-04-30T00:51:53;10.00;99.90
37646;DHT22;23489;49.600;6.138;2023-04-30T00:54:19;10.00;99.90
37646;DHT22;23489;49.600;6.138;2023-04-30T00:56:45;10.00;99.90
37646;DHT22;23489;49.600;6.138;2023-04-30T00:59:12;10.00;99.90
37646;DHT22;23489;49.600;6.138;2023-04-30T01:01:38;10.00;99.90
37646;DHT22;23489;49.600;6.138;2023-04-30T01:04:04;10.00;99.90
37646;DHT22;23489;49.600;6.138;2023-04-30T01:06:30;10.10;99.90
37646;DHT22;23489;49.600;6.138;2023-04-30T01:08:56;10.10;99.90
37646;DHT22;23489;49.600;6.138;2023-04-30T01:14:39;10.10;99.90
37646;DHT22;23489;49.600;6.138;2023-04-30T01:17:20;10.10;99.90
37646;DHT22;23489;49.600;6.138;2023-04-30T01:19:46;10.20;99.90
37646;DHT22;23489;49.600;6.138;2023-04-30T01:30:23;10.20;99.90
37646;DHT22;23489;49.600;6.138;2023-04-30T01:32:49;10.10;99.90
37646;DHT22;23489;49.600;6.138;2023-04-30T01:35:15;10.10;99.90
37646;DHT22;23489;49.600;6.138;2023-04-30T01:38:41;10.10;99.90
37646;DHT22;23489;49.600;6.138;2023-04-30T01:43:37;10.00;99.90
37646;DHT22;23489;49.600;6.138;2023-04-30T01:46:18;10.00;99.90
37646;DHT22;23489;49.600;6.138;2023-04-30T01:55:13;10.00;99.90
37646;DHT22;23489;49.600;6.138;2023-04-30T01:57:54;9.90;99.90
37646;DHT22;23489;49.600;6.138;2023-04-30T02:00:21;9.90;99.90
37646;DHT22;23489;49.600;6.138;2023-04-30T02:02:48;10.00;99.90
37646;DHT22;23489;49.600;6.138;2023-04-30T02:05:14;9.90;99.90
37646;DHT22;23489;49.600;6.138;2023-04-30T02:07:42;9.90;99.90
37646;DHT22;23489;49.600;6.138;2023-04-30T02:10:09;9.90;99.90
37646;DHT22;23489;49.600;6.138;2023-04-30T02:12:36;10.00;99.90
37646;DHT22;23489;49.600;6.138;2023-04-30T02:15:03;9.90;99.90
37646;DHT22;23489;49.600;6.138;2023-04-30T02:17:29;9.90;99.90
37646;DHT22;23489;49.600;6.138;2023-04-30T02:19:56;9.90;99.90
37646;DHT22;23489;49.600;6.138;2023-04-30T02:22:21;9.90;99.90
37646;DHT22;23489;49.600;6.138;2023-04-30T02:24:47;9.80;99.90
37646;DHT22;23489;49.600;6.138;2023-04-30T02:27:13;9.80;99.90
37646;DHT22;23489;49.600;6.138;2023-04-30T02:29:38;9.80;99.90
37646;DHT22;23489;49.600;6.138;2023-04-30T02:32:04;9.80;99.90
37646;DHT22;23489;49.600;6.138;2023-04-30T02:34:30;9.80;99.90
37646;DHT22;23489;49.600;6.138;2023-04-30T02:36:55;9.70;99.90
37646;DHT22;23489;49.600;6.138;2023-04-30T02:39:21;9.70;99.90
37646;DHT22;23489;49.600;6.138;2023-04-30T02:41:46;9.70;99.90
37646;DHT22;23489;49.600;6.138;2023-04-30T02:44:12;9.60;99.90
37646;DHT22;23489;49.600;6.138;2023-04-30T02:46:37;9.60;99.90
37646;DHT22;23489;49.600;6.138;2023-04-30T02:49:03;9.50;99.90
37646;DHT22;23489;49.600;6.138;2023-04-30T02:51:29;9.50;99.90
37646;DHT22;23489;49.600;6.138;2023-04-30T02:53:54;9.40;99.90
37646;DHT22;23489;49.600;6.138;2023-04-30T02:56:20;9.30;99.90
37646;DHT22;23489;49.600;6.138;2023-04-30T02:58:46;9.20;99.90
37646;DHT22;23489;49.600;6.138;2023-04-30T03:01:12;9.20;99.90
37646;DHT22;23489;49.600;6.138;2023-04-30T03:03:37;9.10;99.90
37646;DHT22;23489;49.600;6.138;2023-04-30T03:06:03;9.10;99.90
37646;DHT22;23489;49.600;6.138;2023-04-30T03:08:29;9.00;99.90
37646;DHT22;23489;49.600;6.138;2023-04-30T03:10:55;9.00;99.90
37646;DHT22;23489;49.600;6.138;2023-04-30T03:13:21;9.00;99.90
37646;DHT22;23489;49.600;6.138;2023-04-30T03:15:46;8.90;99.90
37646;DHT22;23489;49.600;6.138;2023-04-30T03:18:12;8.90;99.90
37646;DHT22;23489;49.600;6.138;2023-04-30T03:20:37;8.80;99.90
37646;DHT22;23489;49.600;6.138;2023-04-30T03:23:03;8.90;99.90
37646;DHT22;23489;49.600;6.138;2023-04-30T03:25:28;8.80;99.90
37646;DHT22;23489;49.600;6.138;2023-04-30T03:27:55;8.90;99.90
37646;DHT22;23489;49.600;6.138;2023-04-30T03:30:20;8.80;99.90
37646;DHT22;23489;49.600;6.138;2023-04-30T03:32:46;8.90;99.90
37646;DHT22;23489;49.600;6.138;2023-04-30T03:35:11;8.90;99.90
37646;DHT22;23489;49.600;6.138;2023-04-30T03:37:37;8.90;99.90
37646;DHT22;23489;49.600;6.138;2023-04-30T03:40:02;8.90;99.90
37646;DHT22;23489;49.600;6.138;2023-04-30T03:42:29;9.00;99.90
37646;DHT22;23489;49.600;6.138;2023-04-30T03:44:54;9.00;99.90
37646;DHT22;23489;49.600;6.138;2023-04-30T03:47:20;9.00;99.90
37646;DHT22;23489;49.600;6.138;2023-04-30T03:49:46;9.00;99.90
37646;DHT22;23489;49.600;6.138;2023-04-30T03:52:13;9.00;99.90
37646;DHT22;23489;49.600;6.138;2023-04-30T03:54:39;9.10;99.90
37646;DHT22;23489;49.600;6.138;2023-04-30T03:57:05;9.00;99.90
37646;DHT22;23489;49.600;6.138;2023-04-30T03:59:32;9.00;99.90
37646;DHT22;23489;49.600;6.138;2023-04-30T04:01:59;9.00;99.90
37646;DHT22;23489;49.600;6.138;2023-04-30T04:04:25;9.00;99.90
37646;DHT22;23489;49.600;6.138;2023-04-30T04:06:52;8.90;99.90
37646;DHT22;23489;49.600;6.138;2023-04-30T04:09:17;9.00;99.90
37646;DHT22;23489;49.600;6.138;2023-04-30T04:11:43;9.00;99.90
37646;DHT22;23489;49.600;6.138;2023-04-30T04:14:09;8.90;99.90
37646;DHT22;23489;49.600;6.138;2023-04-30T04:16:34;8.90;99.90
37646;DHT22;23489;49.600;6.138;2023-04-30T04:19:00;8.90;99.90
37646;DHT22;23489;49.600;6.138;2023-04-30T04:21:26;8.90;99.90
37646;DHT22;23489;49.600;6.138;2023-04-30T04:23:51;8.90;99.90
37646;DHT22;23489;49.600;6.138;2023-04-30T04:26:17;8.80;99.90
37646;DHT22;23489;49.600;6.138;2023-04-30T04:28:46;8.90;99.90
37646;DHT22;23489;49.600;6.138;2023-04-30T04:31:13;8.80;99.90
37646;DHT22;23489;49.600;6.138;2023-04-30T04:33:38;8.90;99.90
37646;DHT22;23489;49.600;6.138;2023-04-30T04:36:04;8.90;99.90
37646;DHT22;23489;49.600;6.138;2023-04-30T04:38:30;8.90;99.90
37646;DHT22;23489;49.600;6.138;2023-04-30T04:40:56;8.90;99.90
37646;DHT22;23489;49.600;6.138;2023-04-30T04:43:22;8.90;99.90
37646;DHT22;23489;49.600;6.138;2023-04-30T04:45:48;8.90;99.90
37646;DHT22;23489;49.600;6.138;2023-04-30T04:48:14;8.90;99.90
37646;DHT22;23489;49.600;6.138;2023-04-30T04:50:39;9.00;99.90
37646;DHT22;23489;49.600;6.138;2023-04-30T04:53:05;9.00;99.90
37646;DHT22;23489;49.600;6.138;2023-04-30T04:55:31;9.00;99.90
37646;DHT22;23489;49.600;6.138;2023-04-30T04:57:56;9.10;99.90
37646;DHT22;23489;49.600;6.138;2023-04-30T05:00:22;9.10;99.90
37646;DHT22;23489;49.600;6.138;2023-04-30T05:02:48;9.20;99.90
37646;DHT22;23489;49.600;6.138;2023-04-30T05:05:14;9.30;99.90
37646;DHT22;23489;49.600;6.138;2023-04-30T05:07:40;9.30;99.90
37646;DHT22;23489;49.600;6.138;2023-04-30T05:10:07;9.30;99.90
37646;DHT22;23489;49.600;6.138;2023-04-30T05:12:34;9.40;99.90
37646;DHT22;23489;49.600;6.138;2023-04-30T05:15:00;9.40;99.90
37646;DHT22;23489;49.600;6.138;2023-04-30T05:17:25;9.40;99.90
37646;DHT22;23489;49.600;6.138;2023-04-30T05:19:51;9.40;99.90
37646;DHT22;23489;49.600;6.138;2023-04-30T05:22:17;9.40;99.90
37646;DHT22;23489;49.600;6.138;2023-04-30T05:24:42;9.40;99.90
37646;DHT22;23489;49.600;6.138;2023-04-30T05:27:08;9.40;99.90
37646;DHT22;23489;49.600;6.138;2023-04-30T05:29:34;9.50;99.90
37646;DHT22;23489;49.600;6.138;2023-04-30T05:31:59;9.50;99.90
37646;DHT22;23489;49.600;6.138;2023-04-30T05:34:25;9.50;99.90
37646;DHT22;23489;49.600;6.138;2023-04-30T05:36:51;9.50;99.90
37646;DHT22;23489;49.600;6.138;2023-04-30T05:39:16;9.50;99.90
37646;DHT22;23489;49.600;6.138;2023-04-30T05:41:42;9.60;99.90
37646;DHT22;23489;49.600;6.138;2023-04-30T05:44:07;9.60;99.90
37646;DHT22;23489;49.600;6.138;2023-04-30T05:46:33;9.60;99.90
37646;DHT22;23489;49.600;6.138;2023-04-30T05:49:00;9.70;99.90
37646;DHT22;23489;49.600;6.138;2023-04-30T05:51:26;9.70;99.90
37646;DHT22;23489;49.600;6.138;2023-04-30T05:53:52;9.80;99.90
37646;DHT22;23489;49.600;6.138;2023-04-30T05:56:18;10.00;99.90
37646;DHT22;23489;49.600;6.138;2023-04-30T05:58:43;10.20;99.90
37646;DHT22;23489;49.600;6.138;2023-04-30T06:01:09;10.20;99.90
37646;DHT22;23489;49.600;6.138;2023-04-30T06:03:36;10.30;99.90
37646;DHT22;23489;49.600;6.138;2023-04-30T06:06:03;10.30;99.90
37646;DHT22;23489;49.600;6.138;2023-04-30T06:08:28;10.40;99.90
37646;DHT22;23489;49.600;6.138;2023-04-30T06:10:55;10.50;99.90
37646;DHT22;23489;49.600;6.138;2023-04-30T06:13:21;10.70;99.90
37646;DHT22;23489;49.600;6.138;2023-04-30T06:15:46;10.80;99.90
37646;DHT22;23489;49.600;6.138;2023-04-30T06:18:12;11.00;99.90
37646;DHT22;23489;49.600;6.138;2023-04-30T06:20:39;11.00;99.90
37646;DHT22;23489;49.600;6.138;2023-04-30T06:23:04;11.20;99.90
37646;DHT22;23489;49.600;6.138;2023-04-30T06:25:30;11.20;99.90
37646;DHT22;23489;49.600;6.138;2023-04-30T06:27:56;11.20;99.90
37646;DHT22;23489;49.600;6.138;2023-04-30T06:30:21;11.40;99.90
37646;DHT22;23489;49.600;6.138;2023-04-30T06:32:47;11.50;99.90
37646;DHT22;23489;49.600;6.138;2023-04-30T06:35:13;11.70;99.90
37646;DHT22;23489;49.600;6.138;2023-04-30T06:37:39;12.00;99.90
37646;DHT22;23489;49.600;6.138;2023-04-30T06:40:05;12.40;99.90
37646;DHT22;23489;49.600;6.138;2023-04-30T06:42:31;13.30;99.90
37646;DHT22;23489;49.600;6.138;2023-04-30T06:45:02;14.50;99.90
37646;DHT22;23489;49.600;6.138;2023-04-30T06:47:29;15.70;99.90
37646;DHT22;23489;49.600;6.138;2023-04-30T06:50:03;16.90;99.90
37646;DHT22;23489;49.600;6.138;2023-04-30T06:52:29;17.80;99.90
37646;DHT22;23489;49.600;6.138;2023-04-30T06:54:55;17.50;99.90
37646;DHT22;23489;49.600;6.138;2023-04-30T06:57:21;17.40;99.90
37646;DHT22;23489;49.600;6.138;2023-04-30T06:59:46;17.90;99.90
37646;DHT22;23489;49.600;6.138;2023-04-30T07:02:12;17.50;99.90
37646;DHT22;23489;49.600;6.138;2023-04-30T07:04:38;17.10;99.90
37646;DHT22;23489;49.600;6.138;2023-04-30T07:07:03;17.20;99.90
37646;DHT22;23489;49.600;6.138;2023-04-30T07:09:29;18.30;99.90
37646;DHT22;23489;49.600;6.138;2023-04-30T07:11:56;19.40;99.90
37646;DHT22;23489;49.600;6.138;2023-04-30T07:14:23;20.50;99.90
37646;DHT22;23489;49.600;6.138;2023-04-30T07:16:49;21.20;99.90
37646;DHT22;23489;49.600;6.138;2023-04-30T07:19:15;21.60;97.80
37646;DHT22;23489;49.600;6.138;2023-04-30T07:21:41;22.20;95.90
37646;DHT22;23489;49.600;6.138;2023-04-30T07:24:07;22.10;94.70
37646;DHT22;23489;49.600;6.138;2023-04-30T07:26:32;21.80;94.50
37646;DHT22;23489;49.600;6.138;2023-04-30T07:28:58;21.90;94.60
37646;DHT22;23489;49.600;6.138;2023-04-30T07:31:23;22.30;93.70
37646;DHT22;23489;49.600;6.138;2023-04-30T07:33:50;22.40;92.10
37646;DHT22;23489;49.600;6.138;2023-04-30T07:36:16;21.70;92.70
37646;DHT22;23489;49.600;6.138;2023-04-30T07:38:42;21.40;93.10
37646;DHT22;23489;49.600;6.138;2023-04-30T07:41:07;21.80;92.10
37646;DHT22;23489;49.600;6.138;2023-04-30T07:43:34;21.70;91.60
37646;DHT22;23489;49.600;6.138;2023-04-30T07:46:00;22.00;91.10
37646;DHT22;23489;49.600;6.138;2023-04-30T07:48:26;21.40;91.50
37646;DHT22;23489;49.600;6.138;2023-04-30T07:50:52;21.60;91.90
37646;DHT22;23489;49.600;6.138;2023-04-30T07:53:18;22.40;88.60
37646;DHT22;23489;49.600;6.138;2023-04-30T07:55:43;22.70;88.40
37646;DHT22;23489;49.600;6.138;2023-04-30T07:58:09;23.20;87.10
37646;DHT22;23489;49.600;6.138;2023-04-30T08:00:34;23.20;83.80
37646;DHT22;23489;49.600;6.138;2023-04-30T08:03:00;23.00;82.00
37646;DHT22;23489;49.600;6.138;2023-04-30T08:05:26;22.80;77.50
37646;DHT22;23489;49.600;6.138;2023-04-30T08:07:52;22.50;77.90
37646;DHT22;23489;49.600;6.138;2023-04-30T08:10:17;22.60;78.40
37646;DHT22;23489;49.600;6.138;2023-04-30T08:12:43;22.60;77.90
37646;DHT22;23489;49.600;6.138;2023-04-30T08:15:09;22.40;76.50
37646;DHT22;23489;49.600;6.138;2023-04-30T08:17:35;22.70;76.50
37646;DHT22;23489;49.600;6.138;2023-04-30T08:20:02;22.00;77.30
37646;DHT22;23489;49.600;6.138;2023-04-30T08:22:28;22.00;76.60
37646;DHT22;23489;49.600;6.138;2023-04-30T08:24:54;21.90;77.70
37646;DHT22;23489;49.600;6.138;2023-04-30T08:27:20;21.20;75.90
37646;DHT22;23489;49.600;6.138;2023-04-30T08:29:46;19.80;78.40
37646;DHT22;23489;49.600;6.138;2023-04-30T08:32:12;19.10;80.70
37646;DHT22;23489;49.600;6.138;2023-04-30T08:34:38;19.20;81.90
37646;DHT22;23489;49.600;6.138;2023-04-30T08:37:06;19.40;80.20
37646;DHT22;23489;49.600;6.138;2023-04-30T08:39:31;19.40;80.80
37646;DHT22;23489;49.600;6.138;2023-04-30T08:42:03;20.50;79.10
37646;DHT22;23489;49.600;6.138;2023-04-30T08:44:33;20.60;77.40
37646;DHT22;23489;49.600;6.138;2023-04-30T08:47:00;20.20;79.40
37646;DHT22;23489;49.600;6.138;2023-04-30T08:49:27;19.70;82.00
37646;DHT22;23489;49.600;6.138;2023-04-30T08:51:57;18.90;83.50
37646;DHT22;23489;49.600;6.138;2023-04-30T08:54:25;18.30;84.20
37646;DHT22;23489;49.600;6.138;2023-04-30T08:56:52;17.90;85.50
37646;DHT22;23489;49.600;6.138;2023-04-30T08:59:17;18.00;86.20
37646;DHT22;23489;49.600;6.138;2023-04-30T09:01:43;18.50;85.30
37646;DHT22;23489;49.600;6.138;2023-04-30T09:04:09;18.10;85.60
37646;DHT22;23489;49.600;6.138;2023-04-30T09:06:34;17.60;88.10
37646;DHT22;23489;49.600;6.138;2023-04-30T09:09:12;17.80;88.20
37646;DHT22;23489;49.600;6.138;2023-04-30T09:11:38;18.40;86.60
37646;DHT22;23489;49.600;6.138;2023-04-30T09:14:04;19.00;84.90
37646;DHT22;23489;49.600;6.138;2023-04-30T09:16:44;19.10;84.70
37646;DHT22;23489;49.600;6.138;2023-04-30T09:19:40;18.70;84.50
37646;DHT22;23489;49.600;6.138;2023-04-30T09:22:20;19.30;84.80
37646;DHT22;23489;49.600;6.138;2023-04-30T09:24:47;19.80;82.50
37646;DHT22;23489;49.600;6.138;2023-04-30T09:27:18;19.80;83.10
37646;DHT22;23489;49.600;6.138;2023-04-30T09:29:44;19.30;82.80
37646;DHT22;23489;49.600;6.138;2023-04-30T09:32:11;18.90;82.00
37646;DHT22;23489;49.600;6.138;2023-04-30T09:34:37;19.00;81.10
37646;DHT22;23489;49.600;6.138;2023-04-30T09:37:03;19.50;81.40
37646;DHT22;23489;49.600;6.138;2023-04-30T09:39:29;19.00;83.30
37646;DHT22;23489;49.600;6.138;2023-04-30T09:42:08;19.00;83.40
37646;DHT22;23489;49.600;6.138;2023-04-30T09:44:37;19.10;83.60
37646;DHT22;23489;49.600;6.138;2023-04-30T09:47:02;19.90;82.20
37646;DHT22;23489;49.600;6.138;2023-04-30T09:49:29;20.10;81.50
37646;DHT22;23489;49.600;6.138;2023-04-30T09:52:00;19.80;80.60
37646;DHT22;23489;49.600;6.138;2023-04-30T09:54:28;19.20;83.00
37646;DHT22;23489;49.600;6.138;2023-04-30T09:56:57;18.70;81.40
37646;DHT22;23489;49.600;6.138;2023-04-30T09:59:30;18.10;82.30
37646;DHT22;23489;49.600;6.138;2023-04-30T10:01:57;17.30;84.30
37646;DHT22;23489;49.600;6.138;2023-04-30T10:04:23;16.80;86.50
37646;DHT22;23489;49.600;6.138;2023-04-30T10:06:50;16.80;88.50
37646;DHT22;23489;49.600;6.138;2023-04-30T10:09:16;16.90;85.70
37646;DHT22;23489;49.600;6.138;2023-04-30T10:11:43;18.10;82.90
37646;DHT22;23489;49.600;6.138;2023-04-30T10:14:10;19.90;79.50
37646;DHT22;23489;49.600;6.138;2023-04-30T10:16:42;20.90;76.70
37646;DHT22;23489;49.600;6.138;2023-04-30T10:19:29;21.60;74.50
37646;DHT22;23489;49.600;6.138;2023-04-30T10:21:55;22.00;73.50
37646;DHT22;23489;49.600;6.138;2023-04-30T10:24:20;22.50;71.50
37646;DHT22;23489;49.600;6.138;2023-04-30T10:26:47;23.10;70.20
37646;DHT22;23489;49.600;6.138;2023-04-30T10:29:14;22.70;68.60
37646;DHT22;23489;49.600;6.138;2023-04-30T10:31:46;22.20;69.30
37646;DHT22;23489;49.600;6.138;2023-04-30T10:34:35;22.00;69.60
37646;DHT22;23489;49.600;6.138;2023-04-30T10:39:44;21.80;70.40
37646;DHT22;23489;49.600;6.138;2023-04-30T10:42:10;22.10;68.60
37646;DHT22;23489;49.600;6.138;2023-04-30T10:44:36;21.00;70.10
37646;DHT22;23489;49.600;6.138;2023-04-30T10:47:04;20.10;72.50
37646;DHT22;23489;49.600;6.138;2023-04-30T10:49:30;19.10;73.50
37646;DHT22;23489;49.600;6.138;2023-04-30T10:51:59;18.80;74.80
37646;DHT22;23489;49.600;6.138;2023-04-30T10:54:32;18.50;75.90
37646;DHT22;23489;49.600;6.138;2023-04-30T10:57:08;18.30;77.20
37646;DHT22;23489;49.600;6.138;2023-04-30T10:59:36;18.40;78.10
37646;DHT22;23489;49.600;6.138;2023-04-30T11:02:02;18.50;78.30
37646;DHT22;23489;49.600;6.138;2023-04-30T11:04:28;18.30;78.10
37646;DHT22;23489;49.600;6.138;2023-04-30T11:09:23;18.00;79.10
37646;DHT22;23489;49.600;6.138;2023-04-30T11:12:25;17.60;79.10
37646;DHT22;23489;49.600;6.138;2023-04-30T11:15:11;17.30;79.60
37646;DHT22;23489;49.600;6.138;2023-04-30T11:17:36;17.10;80.80
37646;DHT22;23489;49.600;6.138;2023-04-30T11:20:02;17.20;81.20
37646;DHT22;23489;49.600;6.138;2023-04-30T11:22:28;17.30;81.90
37646;DHT22;23489;49.600;6.138;2023-04-30T11:25:23;17.50;81.40
37646;DHT22;23489;49.600;6.138;2023-04-30T11:27:49;17.40;81.40
37646;DHT22;23489;49.600;6.138;2023-04-30T11:30:15;17.40;81.70
37646;DHT22;23489;49.600;6.138;2023-04-30T11:32:44;17.90;80.90
37646;DHT22;23489;49.600;6.138;2023-04-30T11:35:12;18.00;80.70
37646;DHT22;23489;49.600;6.138;2023-04-30T11:37:41;18.10;80.50
37646;DHT22;23489;49.600;6.138;2023-04-30T11:40:10;18.10;80.00
37646;DHT22;23489;49.600;6.138;2023-04-30T11:42:37;17.90;80.70
37646;DHT22;23489;49.600;6.138;2023-04-30T11:45:10;17.70;80.70
37646;DHT22;23489;49.600;6.138;2023-04-30T11:47:43;17.70;81.10
37646;DHT22;23489;49.600;6.138;2023-04-30T11:50:09;17.70;81.80
37646;DHT22;23489;49.600;6.138;2023-04-30T11:52:35;17.70;82.10
37646;DHT22;23489;49.600;6.138;2023-04-30T11:55:04;17.70;82.80
37646;DHT22;23489;49.600;6.138;2023-04-30T11:57:38;17.70;82.30
37646;DHT22;23489;49.600;6.138;2023-04-30T12:00:34;17.70;81.20
37646;DHT22;23489;49.600;6.138;2023-04-30T12:03:00;18.00;81.60
37646;DHT22;23489;49.600;6.138;2023-04-30T12:05:27;18.20;80.90
37646;DHT22;23489;49.600;6.138;2023-04-30T12:10:19;18.40;79.60
37646;DHT22;23489;49.600;6.138;2023-04-30T12:12:46;18.40;80.20
37646;DHT22;23489;49.600;6.138;2023-04-30T12:17:37;18.50;80.10
37646;DHT22;23489;49.600;6.138;2023-04-30T12:20:03;18.50;80.30
37646;DHT22;23489;49.600;6.138;2023-04-30T12:22:29;18.10;80.30
37646;DHT22;23489;49.600;6.138;2023-04-30T12:24:57;18.00;81.50
37646;DHT22;23489;49.600;6.138;2023-04-30T12:27:23;17.80;81.90
37646;DHT22;23489;49.600;6.138;2023-04-30T12:29:49;17.80;81.40
37646;DHT22;23489;49.600;6.138;2023-04-30T12:32:20;17.70;82.00
37646;DHT22;23489;49.600;6.138;2023-04-30T12:34:45;17.70;82.70
37646;DHT22;23489;49.600;6.138;2023-04-30T12:37:13;17.80;82.40
37646;DHT22;23489;49.600;6.138;2023-04-30T12:39:40;17.80;82.90
37646;DHT22;23489;49.600;6.138;2023-04-30T12:42:06;17.90;82.30
37646;DHT22;23489;49.600;6.138;2023-04-30T12:44:41;17.90;81.60
37646;DHT22;23489;49.600;6.138;2023-04-30T12:47:08;17.90;81.40
37646;DHT22;23489;49.600;6.138;2023-04-30T12:49:34;17.90;81.70
37646;DHT22;23489;49.600;6.138;2023-04-30T12:52:03;17.90;82.60
37646;DHT22;23489;49.600;6.138;2023-04-30T12:54:32;17.90;81.50
37646;DHT22;23489;49.600;6.138;2023-04-30T12:56:58;17.70;81.70
37646;DHT22;23489;49.600;6.138;2023-04-30T12:59:26;17.60;81.20
37646;DHT22;23489;49.600;6.138;2023-04-30T13:01:52;17.40;81.40
37646;DHT22;23489;49.600;6.138;2023-04-30T13:04:20;17.40;82.60
37646;DHT22;23489;49.600;6.138;2023-04-30T13:06:45;17.40;82.30
37646;DHT22;23489;49.600;6.138;2023-04-30T13:09:11;17.40;82.60
37646;DHT22;23489;49.600;6.138;2023-04-30T13:11:37;17.40;82.80
37646;DHT22;23489;49.600;6.138;2023-04-30T13:14:03;17.40;82.80
37646;DHT22;23489;49.600;6.138;2023-04-30T13:16:29;17.30;82.20
37646;DHT22;23489;49.600;6.138;2023-04-30T13:18:55;17.20;82.30
37646;DHT22;23489;49.600;6.138;2023-04-30T13:21:21;17.20;82.30
37646;DHT22;23489;49.600;6.138;2023-04-30T13:23:47;17.30;82.60
37646;DHT22;23489;49.600;6.138;2023-04-30T13:26:13;17.40;82.90
37646;DHT22;23489;49.600;6.138;2023-04-30T13:28:39;17.60;82.80
37646;DHT22;23489;49.600;6.138;2023-04-30T13:31:05;17.80;83.00
37646;DHT22;23489;49.600;6.138;2023-04-30T13:33:30;17.90;82.20
37646;DHT22;23489;49.600;6.138;2023-04-30T13:35:56;18.10;81.90
37646;DHT22;23489;49.600;6.138;2023-04-30T13:38:21;18.20;81.50
37646;DHT22;23489;49.600;6.138;2023-04-30T13:40:47;18.30;80.90
37646;DHT22;23489;49.600;6.138;2023-04-30T13:43:12;18.10;80.70
37646;DHT22;23489;49.600;6.138;2023-04-30T13:45:38;18.20;80.70
37646;DHT22;23489;49.600;6.138;2023-04-30T13:48:03;18.20;80.40
37646;DHT22;23489;49.600;6.138;2023-04-30T13:50:29;18.40;80.70
37646;DHT22;23489;49.600;6.138;2023-04-30T13:52:55;18.60;80.60
37646;DHT22;23489;49.600;6.138;2023-04-30T13:55:23;18.70;80.00
37646;DHT22;23489;49.600;6.138;2023-04-30T13:57:49;18.60;79.70
37646;DHT22;23489;49.600;6.138;2023-04-30T14:00:15;18.60;79.10
37646;DHT22;23489;49.600;6.138;2023-04-30T14:02:41;18.50;79.60
37646;DHT22;23489;49.600;6.138;2023-04-30T14:05:07;18.50;80.00
37646;DHT22;23489;49.600;6.138;2023-04-30T14:07:33;18.60;79.60
37646;DHT22;23489;49.600;6.138;2023-04-30T14:09:58;18.50;79.40
37646;DHT22;23489;49.600;6.138;2023-04-30T14:12:24;18.20;79.70
37646;DHT22;23489;49.600;6.138;2023-04-30T14:14:49;17.90;80.20
37646;DHT22;23489;49.600;6.138;2023-04-30T14:17:15;17.80;80.20
37646;DHT22;23489;49.600;6.138;2023-04-30T14:19:41;17.80;79.80
37646;DHT22;23489;49.600;6.138;2023-04-30T14:22:06;17.90;80.00
37646;DHT22;23489;49.600;6.138;2023-04-30T14:24:32;18.00;80.10
37646;DHT22;23489;49.600;6.138;2023-04-30T14:26:59;18.10;81.10
37646;DHT22;23489;49.600;6.138;2023-04-30T14:29:26;18.10;81.30
37646;DHT22;23489;49.600;6.138;2023-04-30T14:31:51;18.20;81.90
37646;DHT22;23489;49.600;6.138;2023-04-30T14:34:17;18.30;80.60
37646;DHT22;23489;49.600;6.138;2023-04-30T14:36:44;18.40;80.50
37646;DHT22;23489;49.600;6.138;2023-04-30T14:39:09;18.60;80.10
37646;DHT22;23489;49.600;6.138;2023-04-30T14:41:35;18.70;80.50
37646;DHT22;23489;49.600;6.138;2023-04-30T14:44:01;18.60;80.10
37646;DHT22;23489;49.600;6.138;2023-04-30T14:46:27;18.60;80.20
37646;DHT22;23489;49.600;6.138;2023-04-30T14:48:53;18.60;80.10
37646;DHT22;23489;49.600;6.138;2023-04-30T14:51:19;18.60;80.70
37646;DHT22;23489;49.600;6.138;2023-04-30T14:53:44;18.60;80.20
37646;DHT22;23489;49.600;6.138;2023-04-30T14:56:10;18.50;80.30
37646;DHT22;23489;49.600;6.138;2023-04-30T14:58:35;18.50;81.00
37646;DHT22;23489;49.600;6.138;2023-04-30T15:01:01;18.60;79.60
37646;DHT22;23489;49.600;6.138;2023-04-30T15:03:26;18.40;80.10
37646;DHT22;23489;49.600;6.138;2023-04-30T15:05:52;18.30;81.80
37646;DHT22;23489;49.600;6.138;2023-04-30T15:08:18;18.20;80.70
37646;DHT22;23489;49.600;6.138;2023-04-30T15:10:43;18.10;81.30
37646;DHT22;23489;49.600;6.138;2023-04-30T15:13:09;18.00;81.00
37646;DHT22;23489;49.600;6.138;2023-04-30T15:15:35;17.80;81.10
37646;DHT22;23489;49.600;6.138;2023-04-30T15:18:01;17.80;81.80
37646;DHT22;23489;49.600;6.138;2023-04-30T15:20:28;17.60;83.20
37646;DHT22;23489;49.600;6.138;2023-04-30T15:22:54;17.50;83.20
37646;DHT22;23489;49.600;6.138;2023-04-30T15:25:20;17.50;83.30
37646;DHT22;23489;49.600;6.138;2023-04-30T15:27:48;17.50;83.40
37646;DHT22;23489;49.600;6.138;2023-04-30T15:30:14;17.70;83.00
37646;DHT22;23489;49.600;6.138;2023-04-30T15:32:39;17.80;83.30
37646;DHT22;23489;49.600;6.138;2023-04-30T15:35:06;17.80;83.20
37646;DHT22;23489;49.600;6.138;2023-04-30T15:37:31;17.90;83.30
37646;DHT22;23489;49.600;6.138;2023-04-30T15:39:59;17.90;82.80
37646;DHT22;23489;49.600;6.138;2023-04-30T15:42:25;17.80;82.60
37646;DHT22;23489;49.600;6.138;2023-04-30T15:44:50;17.70;82.90
37646;DHT22;23489;49.600;6.138;2023-04-30T15:47:16;17.40;83.40
37646;DHT22;23489;49.600;6.138;2023-04-30T15:49:42;17.40;84.00
37646;DHT22;23489;49.600;6.138;2023-04-30T15:52:08;17.30;83.30
37646;DHT22;23489;49.600;6.138;2023-04-30T15:54:34;17.30;83.50
37646;DHT22;23489;49.600;6.138;2023-04-30T15:57:00;17.30;84.20
37646;DHT22;23489;49.600;6.138;2023-04-30T15:59:27;17.40;84.60
37646;DHT22;23489;49.600;6.138;2023-04-30T16:01:52;17.40;84.80
37646;DHT22;23489;49.600;6.138;2023-04-30T16:04:18;17.50;84.60